sensor_id;sensor_type;location;lat;lon;timestamp;pressure;altitude;pressure_sealevel;temperature
82774;BMP280;72508;45.118;20.728;2023-12-04T00:06:25;101504.13;;;3.28
82774;BMP280;72508;45.118;20.728;2023-12-04T00:16:27;101441.63;;;2.81
82774;BMP280;72508;45.118;20.728;2023-12-04T00:26:29;101414.53;;;2.54
82774;BMP280;72508;45.118;20.728;2023-12-04T00:36:31;101490.84;;;2.70
82774;BMP280;72508;45.118;20.728;2023-12-04T00:46:34;101482.75;;;2.53
82774;BMP280;72508;45.118;20.728;2023-12-04T00:56:38;101538.09;;;2.83
82774;BMP280;72508;45.118;20.728;2023-12-04T01:06:41;101438.00;;;2.21
82774;BMP280;72508;45.118;20.728;2023-12-04T01:16:44;101478.84;;;2.27
82774;BMP280;72508;45.118;20.728;2023-12-04T01:26:46;101467.47;;;2.29
82774;BMP280;72508;45.118;20.728;2023-12-04T01:36:48;101469.25;;;2.18
82774;BMP280;72508;45.118;20.728;2023-12-04T01:46:51;101482.41;;;2.26
82774;BMP280;72508;45.118;20.728;2023-12-04T01:56:54;101498.16;;;2.23
82774;BMP280;72508;45.118;20.728;2023-12-04T02:06:56;101445.03;;;1.86
82774;BMP280;72508;45.118;20.728;2023-12-04T02:17:01;101460.69;;;1.73
82774;BMP280;72508;45.118;20.728;2023-12-04T02:27:17;101458.31;;;1.82
82774;BMP280;72508;45.118;20.728;2023-12-04T02:37:23;101456.13;;;1.77
82774;BMP280;72508;45.118;20.728;2023-12-04T02:47:26;101502.66;;;1.98
82774;BMP280;72508;45.118;20.728;2023-12-04T02:57:31;101524.28;;;1.97
82774;BMP280;72508;45.118;20.728;2023-12-04T03:07:36;101476.19;;;1.73
82774;BMP280;72508;45.118;20.728;2023-12-04T03:17:39;101503.66;;;1.74
82774;BMP280;72508;45.118;20.728;2023-12-04T03:27:41;101507.53;;;1.80
82774;BMP280;72508;45.118;20.728;2023-12-04T03:37:43;101479.94;;;1.69
82774;BMP280;72508;45.118;20.728;2023-12-04T03:47:46;101487.09;;;1.54
82774;BMP280;72508;45.118;20.728;2023-12-04T03:57:48;101494.72;;;1.56
82774;BMP280;72508;45.118;20.728;2023-12-04T04:07:50;101463.75;;;1.45
82774;BMP280;72508;45.118;20.728;2023-12-04T04:17:53;101488.38;;;1.37
82774;BMP280;72508;45.118;20.728;2023-12-04T04:27:55;101488.66;;;1.23
82774;BMP280;72508;45.118;20.728;2023-12-04T04:37:57;101493.81;;;1.23
82774;BMP280;72508;45.118;20.728;2023-12-04T04:48:00;101538.16;;;1.40
82774;BMP280;72508;45.118;20.728;2023-12-04T04:58:02;101473.16;;;1.12
82774;BMP280;72508;45.118;20.728;2023-12-04T05:08:08;101546.38;;;1.56
82774;BMP280;72508;45.118;20.728;2023-12-04T05:18:13;101580.81;;;1.79
82774;BMP280;72508;45.118;20.728;2023-12-04T05:28:18;101500.38;;;1.16
82774;BMP280;72508;45.118;20.728;2023-12-04T05:38:23;101496.13;;;1.04
82774;BMP280;72508;45.118;20.728;2023-12-04T05:48:27;101517.94;;;1.00
82774;BMP280;72508;45.118;20.728;2023-12-04T05:58:29;101523.97;;;0.87
82774;BMP280;72508;45.118;20.728;2023-12-04T06:08:31;101508.34;;;0.77
82774;BMP280;72508;45.118;20.728;2023-12-04T06:18:36;101496.28;;;0.78
82774;BMP280;72508;45.118;20.728;2023-12-04T06:28:41;101612.13;;;1.52
82774;BMP280;72508;45.118;20.728;2023-12-04T06:38:45;101603.19;;;1.56
82774;BMP280;72508;45.118;20.728;2023-12-04T06:48:53;101609.78;;;1.60
82774;BMP280;72508;45.118;20.728;2023-12-04T06:58:56;101599.94;;;1.76
82774;BMP280;72508;45.118;20.728;2023-12-04T07:08:58;101585.41;;;1.87
82774;BMP280;72508;45.118;20.728;2023-12-04T07:18:59;101593.47;;;2.05
82774;BMP280;72508;45.118;20.728;2023-12-04T07:29:02;101611.19;;;2.32
82774;BMP280;72508;45.118;20.728;2023-12-04T07:39:07;101624.44;;;2.50
82774;BMP280;72508;45.118;20.728;2023-12-04T07:49:10;101616.16;;;2.88
82774;BMP280;72508;45.118;20.728;2023-12-04T08:09:48;101620.94;;;3.25
82774;BMP280;72508;45.118;20.728;2023-12-04T08:19:50;101615.72;;;3.67
82774;BMP280;72508;45.118;20.728;2023-12-04T08:29:52;101628.03;;;3.85
82774;BMP280;72508;45.118;20.728;2023-12-04T08:39:54;101629.19;;;4.11
82774;BMP280;72508;45.118;20.728;2023-12-04T08:49:56;101633.38;;;4.92
82774;BMP280;72508;45.118;20.728;2023-12-04T08:59:57;101642.44;;;5.45
82774;BMP280;72508;45.118;20.728;2023-12-04T09:10:00;101643.50;;;6.25
82774;BMP280;72508;45.118;20.728;2023-12-04T09:20:03;101620.44;;;6.66
82774;BMP280;72508;45.118;20.728;2023-12-04T09:30:07;101599.44;;;6.86
82774;BMP280;72508;45.118;20.728;2023-12-04T09:40:10;101577.31;;;7.24
82774;BMP280;72508;45.118;20.728;2023-12-04T09:50:14;101580.72;;;7.51
82774;BMP280;72508;45.118;20.728;2023-12-04T10:00:19;101582.75;;;8.06
82774;BMP280;72508;45.118;20.728;2023-12-04T10:10:24;101569.25;;;8.27
82774;BMP280;72508;45.118;20.728;2023-12-04T10:20:29;101564.75;;;8.77
82774;BMP280;72508;45.118;20.728;2023-12-04T10:30:32;101559.72;;;9.15
82774;BMP280;72508;45.118;20.728;2023-12-04T10:40:35;101543.44;;;9.67
82774;BMP280;72508;45.118;20.728;2023-12-04T10:50:38;101527.00;;;9.73
82774;BMP280;72508;45.118;20.728;2023-12-04T11:00:50;101526.63;;;10.52
82774;BMP280;72508;45.118;20.728;2023-12-04T11:11:04;101503.84;;;10.67
82774;BMP280;72508;45.118;20.728;2023-12-04T11:21:08;101488.84;;;11.34
82774;BMP280;72508;45.118;20.728;2023-12-04T11:31:11;101481.97;;;12.17
82774;BMP280;72508;45.118;20.728;2023-12-04T11:41:17;101465.53;;;12.43
82774;BMP280;72508;45.118;20.728;2023-12-04T11:51:45;101436.44;;;12.51
82774;BMP280;72508;45.118;20.728;2023-12-04T12:01:54;101443.00;;;12.82
82774;BMP280;72508;45.118;20.728;2023-12-04T12:12:00;101425.63;;;13.21
82774;BMP280;72508;45.118;20.728;2023-12-04T12:22:03;101407.81;;;13.23
82774;BMP280;72508;45.118;20.728;2023-12-04T12:32:05;101399.44;;;12.60
82774;BMP280;72508;45.118;20.728;2023-12-04T12:42:07;101377.78;;;12.31
82774;BMP280;72508;45.118;20.728;2023-12-04T12:52:09;101369.94;;;12.71
82774;BMP280;72508;45.118;20.728;2023-12-04T13:02:13;101362.47;;;12.68
82774;BMP280;72508;45.118;20.728;2023-12-04T13:12:15;101339.84;;;13.07
82774;BMP280;72508;45.118;20.728;2023-12-04T13:22:16;101326.84;;;13.32
82774;BMP280;72508;45.118;20.728;2023-12-04T13:32:18;101330.50;;;12.44
82774;BMP280;72508;45.118;20.728;2023-12-04T13:42:21;101327.03;;;11.76
82774;BMP280;72508;45.118;20.728;2023-12-04T13:52:43;101301.41;;;10.44
82774;BMP280;72508;45.118;20.728;2023-12-04T14:02:44;101291.22;;;9.53
82774;BMP280;72508;45.118;20.728;2023-12-04T14:12:46;101263.91;;;9.03
82774;BMP280;72508;45.118;20.728;2023-12-04T14:22:49;101267.06;;;8.60
82774;BMP280;72508;45.118;20.728;2023-12-04T14:32:51;101261.09;;;8.12
82774;BMP280;72508;45.118;20.728;2023-12-04T14:42:52;101252.25;;;7.82
82774;BMP280;72508;45.118;20.728;2023-12-04T14:52:54;101256.91;;;7.39
82774;BMP280;72508;45.118;20.728;2023-12-04T15:02:58;101233.00;;;7.27
82774;BMP280;72508;45.118;20.728;2023-12-04T15:13:19;101217.69;;;6.99
82774;BMP280;72508;45.118;20.728;2023-12-04T15:23:40;101203.06;;;6.98
82774;BMP280;72508;45.118;20.728;2023-12-04T15:33:42;101188.56;;;6.96
82774;BMP280;72508;45.118;20.728;2023-12-04T15:43:44;101180.75;;;6.71
82774;BMP280;72508;45.118;20.728;2023-12-04T15:53:49;101175.72;;;6.62
82774;BMP280;72508;45.118;20.728;2023-12-04T16:03:52;101162.66;;;6.53
82774;BMP280;72508;45.118;20.728;2023-12-04T16:13:53;101157.47;;;6.37
82774;BMP280;72508;45.118;20.728;2023-12-04T16:23:57;101141.16;;;6.27
82774;BMP280;72508;45.118;20.728;2023-12-04T16:33:59;101142.13;;;6.17
82774;BMP280;72508;45.118;20.728;2023-12-04T16:44:01;101135.59;;;6.05
82774;BMP280;72508;45.118;20.728;2023-12-04T16:54:03;101131.34;;;5.96
82774;BMP280;72508;45.118;20.728;2023-12-04T17:04:05;101108.56;;;5.90
82774;BMP280;72508;45.118;20.728;2023-12-04T17:14:07;101081.91;;;5.80
82774;BMP280;72508;45.118;20.728;2023-12-04T17:24:09;101058.81;;;5.76
82774;BMP280;72508;45.118;20.728;2023-12-04T17:34:11;101031.69;;;5.79
82774;BMP280;72508;45.118;20.728;2023-12-04T17:44:12;101005.03;;;5.77
82774;BMP280;72508;45.118;20.728;2023-12-04T17:54:14;100993.16;;;5.66
82774;BMP280;72508;45.118;20.728;2023-12-04T18:04:16;100966.03;;;5.61
82774;BMP280;72508;45.118;20.728;2023-12-04T18:14:17;100951.19;;;5.53
82774;BMP280;72508;45.118;20.728;2023-12-04T18:24:19;100942.25;;;5.47
82774;BMP280;72508;45.118;20.728;2023-12-04T18:34:21;100902.94;;;5.34
82774;BMP280;72508;45.118;20.728;2023-12-04T18:44:23;100912.22;;;5.45
82774;BMP280;72508;45.118;20.728;2023-12-04T18:54:25;100903.47;;;5.46
82774;BMP280;72508;45.118;20.728;2023-12-04T19:04:27;100911.91;;;5.56
82774;BMP280;72508;45.118;20.728;2023-12-04T19:14:28;100901.88;;;5.61
82774;BMP280;72508;45.118;20.728;2023-12-04T19:24:30;100881.38;;;5.66
82774;BMP280;72508;45.118;20.728;2023-12-04T19:34:32;100870.00;;;5.67
82774;BMP280;72508;45.118;20.728;2023-12-04T19:44:34;100842.56;;;5.73
82774;BMP280;72508;45.118;20.728;2023-12-04T19:54:36;100852.16;;;5.72
82774;BMP280;72508;45.118;20.728;2023-12-04T20:04:41;100837.53;;;5.80
82774;BMP280;72508;45.118;20.728;2023-12-04T20:14:46;100837.03;;;5.76
82774;BMP280;72508;45.118;20.728;2023-12-04T20:24:48;100853.25;;;5.86
82774;BMP280;72508;45.118;20.728;2023-12-04T20:34:50;100837.81;;;5.85
82774;BMP280;72508;45.118;20.728;2023-12-04T20:44:52;100835.69;;;5.88
82774;BMP280;72508;45.118;20.728;2023-12-04T20:54:53;100840.75;;;5.82
82774;BMP280;72508;45.118;20.728;2023-12-04T21:04:57;100830.00;;;5.85
82774;BMP280;72508;45.118;20.728;2023-12-04T21:14:59;100825.16;;;5.90
82774;BMP280;72508;45.118;20.728;2023-12-04T21:25:00;100811.16;;;5.83
82774;BMP280;72508;45.118;20.728;2023-12-04T21:35:02;100812.81;;;5.75
82774;BMP280;72508;45.118;20.728;2023-12-04T21:45:06;100808.75;;;5.81
82774;BMP280;72508;45.118;20.728;2023-12-04T21:55:08;100793.00;;;5.74
82774;BMP280;72508;45.118;20.728;2023-12-04T22:05:13;100806.47;;;5.70
82774;BMP280;72508;45.118;20.728;2023-12-04T22:15:16;100805.69;;;5.77
82774;BMP280;72508;45.118;20.728;2023-12-04T22:25:18;100802.41;;;5.67
82774;BMP280;72508;45.118;20.728;2023-12-04T22:35:20;100788.47;;;5.68
82774;BMP280;72508;45.118;20.728;2023-12-04T22:45:22;100759.88;;;5.68
82774;BMP280;72508;45.118;20.728;2023-12-04T22:55:24;100725.59;;;5.65
82774;BMP280;72508;45.118;20.728;2023-12-04T23:05:26;100714.06;;;5.67
82774;BMP280;72508;45.118;20.728;2023-12-04T23:15:27;100696.38;;;5.54
82774;BMP280;72508;45.118;20.728;2023-12-04T23:25:29;100679.34;;;5.52
82774;BMP280;72508;45.118;20.728;2023-12-04T23:35:30;100679.69;;;5.41
82774;BMP280;72508;45.118;20.728;2023-12-04T23:45:33;100643.84;;;5.28
82774;BMP280;72508;45.118;20.728;2023-12-04T23:55:35;100656.66;;;5.05
